EICKLESA

Guest
Details From EICK - Cork
To LESA - Salamanca
Flight Number -
Tags Generated
Created
Modified
Stats Distance 667 nm / 1,235 km
Max Altitude 0 ft / 0 m
Waypoints 3
Social Downloads 0
Likes 0
Share VATSIM

Download

Looking for another format? Having issues loading an existing format? Contact us
Advertisement - Login to hide

Notes

Generated

Route

EICK BBI LESA

ID Type Via Altitude Latitude Longitude Leg Dist Tot Dist Heading (true) Name
O EICK APT - 0 ft / 0 m 51.84143˚ -8.49570˚ - 0 nm - -
BBI VOR - 0 ft / 0 m 41.01681˚ -5.45644˚ 662 nm 662 nm 168° / 170° SALAMANCA VOR-DME
O LESA APT - 0 ft / 0 m 40.94979˚ -5.51276˚ 4 nm 666 nm 212° / 212° -

Altitude Profile

Advertisement - Login to hide

Weather


0- 5 10 15 20 25 30 35+ Temperature / ° C

Clouds and Precipitation
Forecast for 2017-12-18 12:00 UTC. Updated 18 minutes ago

Ground ~20,000 ft ~40,000 ft Winds

EICK

Details ICAO EICK (ORK)
Name Cork
Region Ireland
Timezone Europe/Dublin (UTC+0.0)
Stats Elevation 502 ft / 153 m (AMSL)
Location 51.842605° -8.489056°
Runways 2
Magnetic Variation 3.610° W

METAR

EICK 180930Z 27002KT 0300 R17/0300N R35/0275N FG BKN001 06/06 Q1029 TEMPO 2000

Decode

TAF

TAF AMD EICK 180444Z 1804/1824 31008KT 9999 SCT020 BECMG 1805/1808 3000 BR BKN005 TEMPO 1810/1824 2000 BR -DZ BKN002 PROB30 TEMPO 1811/1824 0400 FG BKN001

Decode

Departure Runways

ID Width Length Bearing (true) Bearing (mag) Surface Threshold Offset Overrun Length
07 148 ft / 45 m 4,281 ft / 1,305 m 62.55° 66.16° Concrete 0 ft / 0 m 0 ft / 0 m
17 148 ft / 45 m 6,992 ft / 2,131 m 159.93° 163.54° Asphalt 0 ft / 0 m 115 ft / 35 m
25 148 ft / 45 m 4,281 ft / 1,305 m 242.57° 246.18° Concrete 0 ft / 0 m 39 ft / 12 m
35 148 ft / 45 m 6,992 ft / 2,131 m 339.94° 343.55° Asphalt 0 ft / 0 m 0 ft / 0 m

LESA

Details ICAO LESA (SLM)
Name Salamanca
Region Spain
Timezone Europe/Madrid (UTC+1.0)
Stats Elevation 2,595 ft / 791 m (AMSL)
Location 40.952150° -5.501645°
Runways 2
Magnetic Variation 1.291° W

METAR

LESA 180930Z 00000KT CAVOK M01/M02 Q1034

Decode

TAF

TAF LESA 180500Z 1806/1906 VRB05KT CAVOK TX08/1814Z TNM05/1807Z

Decode

Destination Runways

ID Width Length Bearing (true) Bearing (mag) Surface Threshold Offset Overrun Length
03 197 ft / 60 m 8,252 ft / 2,515 m 27.81° 29.10° Asphalt 0 ft / 0 m 902 ft / 275 m
08 400 ft / 122 m 6,601 ft / 2,012 m 74.07° 75.36° Dirt 0 ft / 0 m 0 ft / 0 m
21 197 ft / 60 m 8,252 ft / 2,515 m 207.82° 209.11° Asphalt 0 ft / 0 m 902 ft / 275 m
26 400 ft / 122 m 6,601 ft / 2,012 m 254.09° 255.38° Dirt 0 ft / 0 m 0 ft / 0 m

Approach Navaids

Runway Type Ident Frequency Range Bearing (true) Bearing (mag) Slope Elevation
21 Localiser IALR 110.10 MHz 18 nm / 33 km 207.81° 209.10° - 2,595 ft / 791 m (AMSL)
21 Glidescope IALR 110.10 MHz 10 nm / 19 km 207.82° 209.11° 3.10° 2,595 ft / 791 m (AMSL)